Time;durP1;ratioP1;P1;durP2;ratioP2;P2;SDS_P1;SDS_P2;PMS_P1;PMS_P2;Temp;Humidity;BMP_temperature;BMP_pressure;BME280_temperature;BME280_humidity;BME280_pressure;Samples;Min_cycle;Max_cycle;Signal;HPM_P1;HPM_P2
2023/05/01 00:00:13;;;;;;;;;;;8.40;99.90;;;;;;5069670;28;20429;-93
2023/05/01 00:02:39;;;;;;;;;;;8.40;99.90;;;;;;5079134;28;20027;-93
2023/05/01 00:05:06;;;;;;;;;;;8.40;99.90;;;;;;5058930;28;20456;-92
2023/05/01 00:07:32;;;;;;;;;;;8.30;99.90;;;;;;5074811;28;19932;-91
2023/05/01 00:09:57;;;;;;;;;;;8.30;99.90;;;;;;5081722;28;19924;-91
2023/05/01 00:12:23;;;;;;;;;;;8.30;99.90;;;;;;5068441;28;19929;-91
2023/05/01 00:14:49;;;;;;;;;;;8.30;99.90;;;;;;5082023;28;19924;-91
2023/05/01 00:17:15;;;;;;;;;;;8.30;99.90;;;;;;5079781;28;19924;-93
2023/05/01 00:19:40;;;;;;;;;;;8.20;99.90;;;;;;5065177;28;19924;-92
2023/05/01 00:22:06;;;;;;;;;;;8.20;99.90;;;;;;5068655;28;19946;-91
2023/05/01 00:24:32;;;;;;;;;;;8.30;99.90;;;;;;5062806;28;19931;-93
2023/05/01 00:26:58;;;;;;;;;;;8.20;99.90;;;;;;5081168;28;19924;-92
2023/05/01 00:29:23;;;;;;;;;;;8.20;99.90;;;;;;5065264;28;19933;-93
2023/05/01 00:31:49;;;;;;;;;;;8.20;99.90;;;;;;5076378;28;19924;-93
2023/05/01 00:34:15;;;;;;;;;;;8.20;99.90;;;;;;5058680;28;20019;-94
2023/05/01 00:36:41;;;;;;;;;;;8.20;99.90;;;;;;5061848;28;19925;-91
2023/05/01 00:39:07;;;;;;;;;;;8.20;99.90;;;;;;5070729;28;19947;-91
2023/05/01 00:41:33;;;;;;;;;;;8.20;99.90;;;;;;5081551;28;19938;-92
2023/05/01 00:43:59;;;;;;;;;;;8.20;99.90;;;;;;5071370;28;19924;-91
2023/05/01 00:46:25;;;;;;;;;;;8.20;99.90;;;;;;5061544;28;20547;-93
2023/05/01 00:48:51;;;;;;;;;;;8.20;99.90;;;;;;5058643;28;19931;-93
2023/05/01 00:51:17;;;;;;;;;;;8.10;99.90;;;;;;5077254;28;19930;-93
2023/05/01 00:53:46;;;;;;;;;;;8.10;99.90;;;;;;5076403;28;19924;-92
2023/05/01 00:56:12;;;;;;;;;;;8.10;99.90;;;;;;5076312;28;20451;-91
2023/05/01 00:58:37;;;;;;;;;;;8.10;99.90;;;;;;5081911;28;19987;-93
2023/05/01 01:01:04;;;;;;;;;;;8.00;99.90;;;;;;5063218;28;19974;-92
2023/05/01 01:03:30;;;;;;;;;;;8.00;99.90;;;;;;5088468;28;19928;-92
2023/05/01 01:06:02;;;;;;;;;;;8.00;99.90;;;;;;5068216;28;19980;-91
2023/05/01 01:08:38;;;;;;;;;;;8.00;99.90;;;;;;5067251;28;19931;-92
2023/05/01 01:11:12;;;;;;;;;;;8.00;99.90;;;;;;5079781;28;19968;-91
2023/05/01 01:13:44;;;;;;;;;;;7.90;99.90;;;;;;5071746;28;19996;-93
2023/05/01 01:16:22;;;;;;;;;;;7.90;99.90;;;;;;5081272;28;19932;-91
2023/05/01 01:18:51;;;;;;;;;;;7.90;99.90;;;;;;5069941;28;19925;-92
2023/05/01 01:21:37;;;;;;;;;;;7.90;99.90;;;;;;5058383;28;20003;-93
2023/05/01 01:24:12;;;;;;;;;;;7.90;99.90;;;;;;5077276;28;19925;-93
2023/05/01 01:26:57;;;;;;;;;;;7.80;99.90;;;;;;5072533;28;19938;-93
2023/05/01 01:29:42;;;;;;;;;;;7.80;99.90;;;;;;5076417;28;19979;-92
2023/05/01 01:32:26;;;;;;;;;;;7.80;99.90;;;;;;5072835;28;19924;-93
2023/05/01 01:34:58;;;;;;;;;;;7.80;99.90;;;;;;5073346;28;19924;-91
2023/05/01 01:37:29;;;;;;;;;;;7.70;99.90;;;;;;5064317;28;19972;-92
2023/05/01 01:39:54;;;;;;;;;;;7.70;99.90;;;;;;5065714;28;19924;-93
2023/05/01 01:42:33;;;;;;;;;;;7.70;99.90;;;;;;5061899;28;20423;-92
2023/05/01 01:45:01;;;;;;;;;;;7.60;99.90;;;;;;5084780;28;19931;-92
2023/05/01 01:47:30;;;;;;;;;;;7.60;99.90;;;;;;5082590;28;19928;-92
2023/05/01 01:49:57;;;;;;;;;;;7.60;99.90;;;;;;5082435;28;19928;-92
2023/05/01 01:52:23;;;;;;;;;;;7.60;99.90;;;;;;5082383;28;20029;-91
2023/05/01 01:54:51;;;;;;;;;;;7.60;99.90;;;;;;5065671;28;19924;-92
2023/05/01 01:57:18;;;;;;;;;;;7.50;99.90;;;;;;5071480;28;19946;-91
2023/05/01 01:59:45;;;;;;;;;;;7.50;99.90;;;;;;5063092;28;19971;-91
2023/05/01 02:02:12;;;;;;;;;;;7.50;99.90;;;;;;5064576;28;20007;-91
2023/05/01 02:04:38;;;;;;;;;;;7.50;99.90;;;;;;5082155;28;19943;-93
2023/05/01 02:07:05;;;;;;;;;;;7.50;99.90;;;;;;5067602;28;19931;-92
2023/05/01 02:09:31;;;;;;;;;;;7.50;99.90;;;;;;5081767;28;19956;-92
2023/05/01 02:11:59;;;;;;;;;;;7.50;99.90;;;;;;5083671;28;19925;-92
2023/05/01 02:14:25;;;;;;;;;;;7.40;99.90;;;;;;5083606;28;19931;-92
2023/05/01 02:16:51;;;;;;;;;;;7.50;99.90;;;;;;5066325;28;19924;-92
2023/05/01 02:19:17;;;;;;;;;;;7.40;99.90;;;;;;5075947;28;19950;-91
2023/05/01 02:21:44;;;;;;;;;;;7.40;99.90;;;;;;5064427;28;20524;-92
2023/05/01 02:24:11;;;;;;;;;;;7.40;99.90;;;;;;5068548;28;19935;-92
2023/05/01 02:26:38;;;;;;;;;;;7.40;99.90;;;;;;5068656;28;19995;-91
2023/05/01 02:29:06;;;;;;;;;;;7.40;99.90;;;;;;5087503;28;19931;-90
2023/05/01 02:31:31;;;;;;;;;;;7.30;99.90;;;;;;5061075;28;19974;-91
2023/05/01 02:33:57;;;;;;;;;;;7.30;99.90;;;;;;5082512;28;19924;-91
2023/05/01 02:36:23;;;;;;;;;;;7.20;99.90;;;;;;5083785;28;19935;-93
2023/05/01 02:38:50;;;;;;;;;;;7.20;99.90;;;;;;5081601;28;19932;-91
2023/05/01 02:41:16;;;;;;;;;;;7.20;99.90;;;;;;5077947;28;20090;-92
2023/05/01 02:43:42;;;;;;;;;;;7.10;99.90;;;;;;5065423;28;20373;-91
2023/05/01 02:46:09;;;;;;;;;;;7.10;99.90;;;;;;5082320;28;20003;-90
2023/05/01 02:48:37;;;;;;;;;;;7.10;99.90;;;;;;5075700;28;20371;-92
2023/05/01 02:51:03;;;;;;;;;;;7.00;99.90;;;;;;5059035;28;19924;-92
2023/05/01 02:53:32;;;;;;;;;;;7.00;99.90;;;;;;5069859;28;21875;-92
2023/05/01 02:55:58;;;;;;;;;;;7.00;99.90;;;;;;5055353;28;19932;-92
2023/05/01 02:58:23;;;;;;;;;;;6.90;99.90;;;;;;5064659;28;19935;-91
2023/05/01 03:00:49;;;;;;;;;;;6.90;99.90;;;;;;5081072;28;19924;-91
2023/05/01 03:03:15;;;;;;;;;;;6.90;99.90;;;;;;5066324;28;20327;-93
2023/05/01 03:05:41;;;;;;;;;;;6.90;99.90;;;;;;5062087;28;19924;-91
2023/05/01 03:08:06;;;;;;;;;;;6.80;99.90;;;;;;5079084;28;19962;-93
2023/05/01 03:10:32;;;;;;;;;;;6.80;99.90;;;;;;5044713;28;19924;-91
2023/05/01 03:12:58;;;;;;;;;;;6.80;99.90;;;;;;5081018;28;19924;-92
2023/05/01 03:15:24;;;;;;;;;;;6.70;99.90;;;;;;5066420;28;20249;-91
2023/05/01 03:17:49;;;;;;;;;;;6.70;99.90;;;;;;5063833;28;19924;-92
2023/05/01 03:20:15;;;;;;;;;;;6.70;99.90;;;;;;5080156;28;19928;-90
2023/05/01 03:22:40;;;;;;;;;;;6.60;99.90;;;;;;5078131;28;19924;-91
2023/05/01 03:25:07;;;;;;;;;;;6.60;99.90;;;;;;5064706;28;20021;-91
2023/05/01 03:27:32;;;;;;;;;;;6.50;99.90;;;;;;5078092;28;20037;-91
2023/05/01 03:29:58;;;;;;;;;;;6.50;99.90;;;;;;5074118;28;19924;-90
2023/05/01 03:32:23;;;;;;;;;;;6.50;99.90;;;;;;5064520;28;19925;-93
2023/05/01 03:34:49;;;;;;;;;;;6.50;99.90;;;;;;5064212;28;20433;-91
2023/05/01 03:37:15;;;;;;;;;;;6.50;99.90;;;;;;5059850;28;20337;-92
2023/05/01 03:39:40;;;;;;;;;;;6.50;99.90;;;;;;5063408;28;20329;-92
2023/05/01 03:42:06;;;;;;;;;;;6.40;99.90;;;;;;5053958;28;20242;-91
2023/05/01 03:44:32;;;;;;;;;;;6.50;99.90;;;;;;5084957;28;19963;-93
2023/05/01 03:46:57;;;;;;;;;;;6.40;99.90;;;;;;5078516;28;19935;-92
2023/05/01 03:49:23;;;;;;;;;;;6.00;99.90;;;;;;5073773;28;19928;-91
2023/05/01 03:51:49;;;;;;;;;;;6.40;99.90;;;;;;5060064;28;19929;-91
2023/05/01 03:54:14;;;;;;;;;;;6.40;99.90;;;;;;5064550;28;19928;-92
2023/05/01 03:56:40;;;;;;;;;;;6.30;99.90;;;;;;5063169;28;19931;-92
2023/05/01 03:59:06;;;;;;;;;;;6.30;99.90;;;;;;5064923;28;19928;-92
2023/05/01 04:01:34;;;;;;;;;;;6.20;99.90;;;;;;5058729;28;19963;-91
2023/05/01 04:04:00;;;;;;;;;;;6.20;99.90;;;;;;5061410;28;19978;-92
2023/05/01 04:06:26;;;;;;;;;;;6.20;99.90;;;;;;5047069;28;20601;-92
2023/05/01 04:08:52;;;;;;;;;;;6.20;99.90;;;;;;5079410;28;19924;-92
2023/05/01 04:11:18;;;;;;;;;;;6.20;99.90;;;;;;5074290;28;19928;-90
2023/05/01 04:13:44;;;;;;;;;;;6.20;99.90;;;;;;5076563;28;19955;-91
2023/05/01 04:16:09;;;;;;;;;;;6.20;99.90;;;;;;5073942;28;19935;-92
2023/05/01 04:18:35;;;;;;;;;;;6.20;99.90;;;;;;5063514;28;20394;-90
2023/05/01 04:21:01;;;;;;;;;;;6.20;99.90;;;;;;5080259;28;20422;-91
2023/05/01 04:23:27;;;;;;;;;;;6.20;99.90;;;;;;5078320;28;19931;-91
2023/05/01 04:25:52;;;;;;;;;;;6.30;99.90;;;;;;5095362;28;19924;-91
2023/05/01 04:28:18;;;;;;;;;;;6.30;99.90;;;;;;5052556;28;19925;-92
2023/05/01 04:30:44;;;;;;;;;;;6.30;99.90;;;;;;5042242;28;19936;-91
2023/05/01 04:33:12;;;;;;;;;;;6.30;99.90;;;;;;5058928;28;19989;-91
2023/05/01 04:35:38;;;;;;;;;;;6.30;99.90;;;;;;5040636;28;19947;-91
2023/05/01 04:38:04;;;;;;;;;;;6.40;99.90;;;;;;5061109;28;19928;-91
2023/05/01 04:40:30;;;;;;;;;;;6.40;99.90;;;;;;5061260;28;19931;-92
2023/05/01 04:42:55;;;;;;;;;;;6.40;99.90;;;;;;5063326;28;20011;-90
2023/05/01 04:45:21;;;;;;;;;;;6.50;99.90;;;;;;5061826;28;19924;-91
2023/05/01 04:47:46;;;;;;;;;;;6.50;99.90;;;;;;5068145;28;20008;-92
2023/05/01 04:50:13;;;;;;;;;;;6.50;99.90;;;;;;5076094;28;19929;-91
2023/05/01 04:52:38;;;;;;;;;;;6.50;99.90;;;;;;5072347;28;19987;-91
2023/05/01 04:55:04;;;;;;;;;;;6.60;99.90;;;;;;5078461;28;19924;-91
2023/05/01 04:57:30;;;;;;;;;;;6.60;99.90;;;;;;5081478;28;20007;-93
2023/05/01 04:59:56;;;;;;;;;;;6.60;99.90;;;;;;5059086;28;19996;-92
2023/05/01 05:02:21;;;;;;;;;;;6.70;99.90;;;;;;5064569;28;19931;-91
2023/05/01 05:04:47;;;;;;;;;;;6.80;99.90;;;;;;5076761;28;19978;-91
2023/05/01 05:07:13;;;;;;;;;;;6.80;99.90;;;;;;5076555;28;19939;-92
2023/05/01 05:09:38;;;;;;;;;;;7.00;99.90;;;;;;5060756;28;20388;-91
2023/05/01 05:12:04;;;;;;;;;;;7.10;99.90;;;;;;5056758;28;20376;-91
2023/05/01 05:14:30;;;;;;;;;;;7.20;99.90;;;;;;5058691;28;19932;-93
2023/05/01 05:16:55;;;;;;;;;;;7.40;99.90;;;;;;5057337;28;19928;-92
2023/05/01 05:19:21;;;;;;;;;;;7.40;99.90;;;;;;5081154;28;20095;-91
2023/05/01 05:21:47;;;;;;;;;;;7.50;99.90;;;;;;5054411;28;19925;-93
2023/05/01 05:24:13;;;;;;;;;;;7.50;99.90;;;;;;5054878;28;19947;-91
2023/05/01 05:26:38;;;;;;;;;;;7.50;99.90;;;;;;5061286;28;19925;-92
2023/05/01 05:29:04;;;;;;;;;;;7.60;99.90;;;;;;5073393;28;19931;-92
2023/05/01 05:31:30;;;;;;;;;;;7.60;99.90;;;;;;5085511;28;19935;-93
2023/05/01 05:33:55;;;;;;;;;;;7.70;99.90;;;;;;5061439;28;19928;-92
2023/05/01 05:36:21;;;;;;;;;;;7.70;99.90;;;;;;5086570;28;19924;-93
2023/05/01 05:38:46;;;;;;;;;;;7.80;99.90;;;;;;5071325;28;20391;-92
2023/05/01 05:41:12;;;;;;;;;;;7.80;99.90;;;;;;5085431;28;19931;-92
2023/05/01 05:43:38;;;;;;;;;;;7.80;99.90;;;;;;5081714;28;20318;-91
2023/05/01 05:46:03;;;;;;;;;;;7.80;99.90;;;;;;5081776;28;19928;-90
2023/05/01 05:48:29;;;;;;;;;;;7.80;99.90;;;;;;5048965;28;19924;-89
2023/05/01 05:50:56;;;;;;;;;;;7.90;99.90;;;;;;5066941;28;20431;-91
2023/05/01 05:53:21;;;;;;;;;;;7.90;99.90;;;;;;5067269;28;19924;-91
2023/05/01 05:55:47;;;;;;;;;;;9.30;99.90;;;;;;5060499;28;19935;-90
2023/05/01 05:58:18;;;;;;;;;;;7.90;99.90;;;;;;5070024;28;19954;-91
2023/05/01 06:00:48;;;;;;;;;;;8.00;99.90;;;;;;5064686;28;19924;-91
2023/05/01 06:03:13;;;;;;;;;;;8.10;99.90;;;;;;5045147;28;19979;-88
2023/05/01 06:05:39;;;;;;;;;;;8.10;99.90;;;;;;5056728;28;19931;-87
2023/05/01 06:08:11;;;;;;;;;;;8.10;99.90;;;;;;5072035;28;19928;-95
2023/05/01 06:10:46;;;;;;;;;;;10.50;99.90;;;;;;5064618;28;19924;-92
2023/05/01 06:13:12;;;;;;;;;;;8.30;99.90;;;;;;5058099;28;20007;-92
2023/05/01 06:15:39;;;;;;;;;;;8.40;99.90;;;;;;5063464;28;19972;-91
2023/05/01 06:18:04;;;;;;;;;;;8.40;99.90;;;;;;5082677;28;19924;-90
2023/05/01 06:20:30;;;;;;;;;;;8.40;99.90;;;;;;5040505;28;19946;-91
2023/05/01 06:22:56;;;;;;;;;;;8.50;99.90;;;;;;5057300;28;19928;-91
2023/05/01 06:25:25;;;;;;;;;;;8.50;99.90;;;;;;5063431;28;20001;-93
2023/05/01 06:27:51;;;;;;;;;;;8.60;99.90;;;;;;5079962;28;19944;-91
2023/05/01 06:30:18;;;;;;;;;;;8.70;99.90;;;;;;5063758;28;20007;-94
2023/05/01 06:32:45;;;;;;;;;;;9.40;99.90;;;;;;5061990;28;19928;-94
2023/05/01 06:35:11;;;;;;;;;;;8.90;99.90;;;;;;5042506;28;20279;-96
2023/05/01 06:37:46;;;;;;;;;;;8.90;99.90;;;;;;5064617;28;19994;-96
2023/05/01 06:40:12;;;;;;;;;;;7.60;99.90;;;;;;5062377;28;19935;-92
2023/05/01 06:42:38;;;;;;;;;;;9.30;99.90;;;;;;5065914;28;19978;-95
2023/05/01 06:45:05;;;;;;;;;;;9.00;99.90;;;;;;5092096;28;19950;-94
2023/05/01 06:47:31;;;;;;;;;;;11.50;99.90;;;;;;5093471;28;19924;-95
2023/05/01 06:49:56;;;;;;;;;;;6.90;99.90;;;;;;5087178;28;19923;-95
2023/05/01 06:52:23;;;;;;;;;;;10.10;99.90;;;;;;5097103;22;19932;-86
2023/05/01 06:54:49;;;;;;;;;;;9.70;99.90;;;;;;5047634;28;19934;-84
2023/05/01 06:57:15;;;;;;;;;;;9.80;99.90;;;;;;5052601;28;20299;-85
2023/05/01 06:59:40;;;;;;;;;;;9.90;99.90;;;;;;5028115;28;19929;-86
2023/05/01 07:02:06;;;;;;;;;;;10.00;99.90;;;;;;5054224;28;19928;-87
2023/05/01 07:04:31;;;;;;;;;;;10.00;99.90;;;;;;5058321;28;20288;-85
2023/05/01 07:06:57;;;;;;;;;;;10.10;99.90;;;;;;5056724;28;19974;-85
2023/05/01 07:09:23;;;;;;;;;;;10.20;99.90;;;;;;5065092;28;19938;-85
2023/05/01 07:11:51;;;;;;;;;;;10.30;99.90;;;;;;5066109;28;19924;-85
2023/05/01 07:14:17;;;;;;;;;;;10.40;99.90;;;;;;5046475;28;19982;-85
2023/05/01 07:16:42;;;;;;;;;;;10.40;99.90;;;;;;5052298;28;20337;-85
2023/05/01 07:19:08;;;;;;;;;;;10.50;99.90;;;;;;5044603;28;20010;-85
2023/05/01 07:21:33;;;;;;;;;;;10.60;99.90;;;;;;5047842;28;19928;-85
2023/05/01 07:23:59;;;;;;;;;;;10.60;99.90;;;;;;5026426;28;20288;-85
2023/05/01 07:26:25;;;;;;;;;;;10.70;99.90;;;;;;5051409;28;19932;-84
2023/05/01 07:28:51;;;;;;;;;;;10.80;99.90;;;;;;5091496;28;19924;-84
2023/05/01 07:31:17;;;;;;;;;;;11.00;99.90;;;;;;5059857;28;20327;-83
2023/05/01 07:33:43;;;;;;;;;;;11.00;99.90;;;;;;5068078;28;19971;-84
2023/05/01 07:36:08;;;;;;;;;;;11.20;99.90;;;;;;5051894;28;20031;-84
2023/05/01 07:38:34;;;;;;;;;;;11.20;99.90;;;;;;5069654;28;20024;-84
2023/05/01 07:40:59;;;;;;;;;;;11.30;99.90;;;;;;5033186;28;20421;-84
2023/05/01 07:43:25;;;;;;;;;;;11.40;99.90;;;;;;5047387;28;20380;-84
2023/05/01 07:45:59;;;;;;;;;;;11.60;99.90;;;;;;5044046;28;20040;-84
2023/05/01 07:48:25;;;;;;;;;;;11.70;99.90;;;;;;5051755;28;19925;-85
2023/05/01 07:50:50;;;;;;;;;;;11.80;99.90;;;;;;5035899;28;19924;-85
2023/05/01 07:53:16;;;;;;;;;;;11.80;99.90;;;;;;5047718;28;19925;-85
2023/05/01 07:55:42;;;;;;;;;;;11.90;99.90;;;;;;5050409;28;19932;-85
2023/05/01 07:58:07;;;;;;;;;;;12.00;99.90;;;;;;5044481;28;19925;-84
2023/05/01 08:00:34;;;;;;;;;;;12.10;99.90;;;;;;5032759;28;20321;-84
2023/05/01 08:03:00;;;;;;;;;;;12.20;99.90;;;;;;5044329;28;19924;-84
2023/05/01 08:05:26;;;;;;;;;;;12.20;99.90;;;;;;5043437;28;20292;-84
2023/05/01 08:07:51;;;;;;;;;;;12.20;99.90;;;;;;5068847;28;19928;-83
2023/05/01 08:10:17;;;;;;;;;;;12.30;99.90;;;;;;5052154;28;19931;-84
2023/05/01 08:12:42;;;;;;;;;;;12.30;99.90;;;;;;5030662;28;20127;-84
2023/05/01 08:15:08;;;;;;;;;;;12.40;99.90;;;;;;5066187;28;19936;-83
2023/05/01 08:17:34;;;;;;;;;;;12.50;99.90;;;;;;5033228;28;19933;-83
2023/05/01 08:20:00;;;;;;;;;;;12.50;99.90;;;;;;5051682;28;19924;-84
2023/05/01 08:22:25;;;;;;;;;;;12.50;99.90;;;;;;5057122;28;19952;-84
2023/05/01 08:24:51;;;;;;;;;;;12.50;99.90;;;;;;5061327;28;20591;-86
2023/05/01 08:27:19;;;;;;;;;;;12.60;99.90;;;;;;5038763;28;19990;-85
2023/05/01 08:29:45;;;;;;;;;;;12.70;99.90;;;;;;5034484;28;19929;-84
2023/05/01 08:32:11;;;;;;;;;;;12.80;99.90;;;;;;5048497;28;19975;-85
2023/05/01 08:34:39;;;;;;;;;;;12.90;99.90;;;;;;5047352;28;20397;-86
2023/05/01 08:37:05;;;;;;;;;;;13.00;99.90;;;;;;5031145;28;19932;-87
2023/05/01 08:39:31;;;;;;;;;;;13.00;99.90;;;;;;5067537;28;19928;-85
2023/05/01 08:41:57;;;;;;;;;;;12.70;99.90;;;;;;5067654;28;19964;-86
2023/05/01 08:44:25;;;;;;;;;;;13.20;99.90;;;;;;5100244;28;20094;-85
2023/05/01 08:46:59;;;;;;;;;;;13.20;99.90;;;;;;5073676;28;19924;-87
2023/05/01 08:49:26;;;;;;;;;;;13.10;99.90;;;;;;5076410;28;19954;-85
2023/05/01 08:51:52;;;;;;;;;;;13.40;99.90;;;;;;5085464;28;19928;-86
2023/05/01 08:54:19;;;;;;;;;;;13.50;99.90;;;;;;5052776;28;20319;-84
2023/05/01 08:56:45;;;;;;;;;;;13.60;99.90;;;;;;5066655;28;19924;-83
2023/05/01 08:59:13;;;;;;;;;;;13.60;99.90;;;;;;5035868;28;19925;-84
2023/05/01 09:01:40;;;;;;;;;;;13.70;99.90;;;;;;5049937;28;20373;-84
2023/05/01 09:04:05;;;;;;;;;;;13.80;99.90;;;;;;5068576;28;19924;-84
2023/05/01 09:06:31;;;;;;;;;;;13.90;99.90;;;;;;5049779;28;19932;-84
2023/05/01 09:08:57;;;;;;;;;;;14.10;99.90;;;;;;5064927;28;20305;-85
2023/05/01 09:11:23;;;;;;;;;;;14.20;99.90;;;;;;5069691;28;19933;-85
2023/05/01 09:13:49;;;;;;;;;;;14.30;99.90;;;;;;5070707;28;19931;-84
2023/05/01 09:16:15;;;;;;;;;;;14.40;99.90;;;;;;5065874;28;19924;-84
2023/05/01 09:18:41;;;;;;;;;;;14.50;99.90;;;;;;5059090;28;19924;-84
2023/05/01 09:21:06;;;;;;;;;;;14.60;99.90;;;;;;5038382;28;19928;-84
2023/05/01 09:23:34;;;;;;;;;;;14.60;99.90;;;;;;5061980;28;19948;-83
2023/05/01 09:26:03;;;;;;;;;;;14.70;99.20;;;;;;5049093;28;19932;-84
2023/05/01 09:28:40;;;;;;;;;;;14.80;99.90;;;;;;5079935;28;19935;-85
2023/05/01 09:31:26;;;;;;;;;;;14.90;99.90;;;;;;5051391;28;19928;-83
2023/05/01 09:33:53;;;;;;;;;;;15.00;99.90;;;;;;5069448;28;19936;-84
2023/05/01 09:36:18;;;;;;;;;;;15.10;99.90;;;;;;5052242;28;19931;-84
2023/05/01 09:38:44;;;;;;;;;;;15.20;99.90;;;;;;5051677;28;19925;-84
2023/05/01 09:41:10;;;;;;;;;;;15.30;99.90;;;;;;5048667;28;19928;-85
2023/05/01 09:43:36;;;;;;;;;;;15.40;99.90;;;;;;5070292;28;19924;-84
2023/05/01 09:46:04;;;;;;;;;;;15.40;99.90;;;;;;5061567;28;19924;-86
2023/05/01 09:48:29;;;;;;;;;;;15.60;99.70;;;;;;5038452;28;19924;-87
2023/05/01 09:50:55;;;;;;;;;;;15.60;99.90;;;;;;5067107;28;19935;-84
2023/05/01 09:53:35;;;;;;;;;;;15.60;99.90;;;;;;5069936;28;19928;-83
2023/05/01 09:56:01;;;;;;;;;;;15.60;99.90;;;;;;5065933;28;20391;-84
2023/05/01 09:58:27;;;;;;;;;;;15.60;99.80;;;;;;5060791;28;20429;-84
2023/05/01 10:00:53;;;;;;;;;;;15.70;99.90;;;;;;5067606;28;19937;-85
2023/05/01 10:03:18;;;;;;;;;;;15.70;99.90;;;;;;5050138;28;19939;-84
2023/05/01 10:05:44;;;;;;;;;;;15.80;99.90;;;;;;5069094;28;19928;-84
2023/05/01 10:08:13;;;;;;;;;;;15.80;99.90;;;;;;5052842;28;19979;-83
2023/05/01 10:10:39;;;;;;;;;;;15.90;99.90;;;;;;5064345;28;20012;-83
2023/05/01 10:13:13;;;;;;;;;;;16.00;96.40;;;;;;5067949;28;20010;-83
2023/05/01 10:15:38;;;;;;;;;;;16.00;97.20;;;;;;5066197;28;19925;-82
2023/05/01 10:18:04;;;;;;;;;;;16.00;98.40;;;;;;5037431;28;19950;-83
2023/05/01 10:20:31;;;;;;;;;;;16.00;97.60;;;;;;5052279;28;19931;-83
2023/05/01 10:22:58;;;;;;;;;;;16.00;98.50;;;;;;5063200;28;20065;-84
2023/05/01 10:25:24;;;;;;;;;;;16.20;99.90;;;;;;5046063;28;20388;-84
2023/05/01 10:27:50;;;;;;;;;;;16.30;95.80;;;;;;5044207;28;19957;-83
2023/05/01 10:30:16;;;;;;;;;;;16.40;98.10;;;;;;5063146;28;19970;-84
2023/05/01 10:32:41;;;;;;;;;;;16.50;96.10;;;;;;5064808;28;19978;-85
2023/05/01 10:35:11;;;;;;;;;;;16.60;97.10;;;;;;5063448;28;20436;-84
2023/05/01 10:37:39;;;;;;;;;;;16.70;98.60;;;;;;5066813;28;19925;-84
2023/05/01 10:40:24;;;;;;;;;;;16.90;99.00;;;;;;5060910;28;19925;-84
2023/05/01 10:43:08;;;;;;;;;;;17.00;97.80;;;;;;5061116;28;19924;-84
2023/05/01 10:45:35;;;;;;;;;;;17.10;96.30;;;;;;5047910;28;20248;-84
2023/05/01 10:48:00;;;;;;;;;;;17.10;96.50;;;;;;5055441;28;19931;-83
2023/05/01 10:50:26;;;;;;;;;;;17.00;94.20;;;;;;5049519;28;20003;-84
2023/05/01 10:53:14;;;;;;;;;;;17.00;95.50;;;;;;5051519;28;19931;-83
2023/05/01 10:55:44;;;;;;;;;;;17.10;94.70;;;;;;5042832;28;20008;-84
2023/05/01 10:58:10;;;;;;;;;;;17.00;94.00;;;;;;5061842;28;20365;-84
2023/05/01 11:00:36;;;;;;;;;;;17.00;93.90;;;;;;5086579;28;19925;-84
2023/05/01 11:03:20;;;;;;;;;;;17.20;95.20;;;;;;5070645;28;20011;-84
2023/05/01 11:06:03;;;;;;;;;;;17.30;94.50;;;;;;5063400;28;19924;-85
2023/05/01 11:08:32;;;;;;;;;;;17.40;96.00;;;;;;5043513;28;19967;-86
2023/05/01 11:11:17;;;;;;;;;;;17.50;94.60;;;;;;5067565;28;20425;-85
2023/05/01 11:13:58;;;;;;;;;;;17.60;93.10;;;;;;5052773;28;19925;-87
2023/05/01 11:16:36;;;;;;;;;;;17.60;95.50;;;;;;5049368;28;19928;-86
2023/05/01 11:19:06;;;;;;;;;;;17.70;95.00;;;;;;5054641;28;19972;-86
2023/05/01 11:21:37;;;;;;;;;;;17.70;94.90;;;;;;5063099;28;20384;-86
2023/05/01 11:24:04;;;;;;;;;;;17.80;93.50;;;;;;5026252;28;19933;-85
2023/05/01 11:26:30;;;;;;;;;;;17.80;93.60;;;;;;5045042;28;19940;-85
2023/05/01 11:28:59;;;;;;;;;;;17.90;94.90;;;;;;5043428;28;19933;-85
2023/05/01 11:31:25;;;;;;;;;;;18.00;94.20;;;;;;5061702;28;19932;-86
2023/05/01 11:33:51;;;;;;;;;;;18.10;94.80;;;;;;5062185;28;19924;-86
2023/05/01 11:36:20;;;;;;;;;;;18.40;94.30;;;;;;5068241;28;19932;-87
2023/05/01 11:38:57;;;;;;;;;;;18.20;94.30;;;;;;5048667;28;19925;-85
2023/05/01 11:41:23;;;;;;;;;;;18.30;93.00;;;;;;5050071;28;19932;-84
2023/05/01 11:43:52;;;;;;;;;;;18.50;94.30;;;;;;5040510;28;19924;-87
2023/05/01 11:46:28;;;;;;;;;;;16.80;90.40;;;;;;5063788;28;19925;-84
2023/05/01 11:48:55;;;;;;;;;;;18.60;92.80;;;;;;5067716;28;20284;-85
2023/05/01 11:51:20;;;;;;;;;;;18.60;94.10;;;;;;5067003;28;19947;-87
2023/05/01 11:54:05;;;;;;;;;;;18.60;93.00;;;;;;5041100;28;19928;-86
2023/05/01 11:56:32;;;;;;;;;;;18.70;93.70;;;;;;5057091;28;19973;-86
2023/05/01 11:59:07;;;;;;;;;;;18.70;92.50;;;;;;5069188;28;19924;-86
2023/05/01 12:01:36;;;;;;;;;;;17.20;93.20;;;;;;5065859;28;19924;-86
2023/05/01 12:04:02;;;;;;;;;;;18.70;93.30;;;;;;5053134;28;19932;-85
2023/05/01 12:06:35;;;;;;;;;;;18.70;95.90;;;;;;5045581;28;19925;-85
2023/05/01 12:09:01;;;;;;;;;;;18.90;93.50;;;;;;5046836;28;19932;-85
2023/05/01 12:11:27;;;;;;;;;;;18.80;93.70;;;;;;5048784;28;19924;-86
2023/05/01 12:13:53;;;;;;;;;;;18.80;96.00;;;;;;5044716;28;20075;-85
2023/05/01 12:16:19;;;;;;;;;;;20.90;95.70;;;;;;5049543;28;19925;-85
2023/05/01 12:18:47;;;;;;;;;;;18.80;93.00;;;;;;5035809;28;19951;-86
2023/05/01 12:21:21;;;;;;;;;;;18.80;92.50;;;;;;5068887;28;20614;-84
2023/05/01 12:23:47;;;;;;;;;;;18.80;93.30;;;;;;5049275;28;20031;-86
2023/05/01 12:26:22;;;;;;;;;;;18.80;92.80;;;;;;5047214;28;20560;-86
2023/05/01 12:29:06;;;;;;;;;;;18.80;93.20;;;;;;5068489;28;19925;-86
2023/05/01 12:31:32;;;;;;;;;;;19.00;92.70;;;;;;5060060;28;19977;-86
2023/05/01 12:33:59;;;;;;;;;;;18.40;94.80;;;;;;5079019;28;19928;-86
2023/05/01 12:36:26;;;;;;;;;;;18.70;93.90;;;;;;5050162;28;20297;-85
2023/05/01 12:38:59;;;;;;;;;;;18.30;94.00;;;;;;5068947;28;19933;-87
2023/05/01 12:41:32;;;;;;;;;;;18.40;94.90;;;;;;5047665;28;19931;-86
2023/05/01 12:44:02;;;;;;;;;;;18.20;95.50;;;;;;5037972;28;19932;-86
2023/05/01 12:46:28;;;;;;;;;;;18.20;96.60;;;;;;5058372;28;20272;-87
2023/05/01 12:48:54;;;;;;;;;;;18.30;97.50;;;;;;5055538;28;19925;-87
2023/05/01 12:51:20;;;;;;;;;;;18.20;97.70;;;;;;5070794;28;20031;-87
2023/05/01 12:53:47;;;;;;;;;;;18.30;95.90;;;;;;5048061;28;20428;-86
2023/05/01 12:56:22;;;;;;;;;;;18.30;96.30;;;;;;5063656;28;20016;-87
2023/05/01 12:58:47;;;;;;;;;;;18.30;95.10;;;;;;5091089;28;19978;-85
2023/05/01 13:01:22;;;;;;;;;;;18.80;95.20;;;;;;5067852;28;19932;-86
2023/05/01 13:03:48;;;;;;;;;;;18.70;95.70;;;;;;5045465;28;19956;-86
2023/05/01 13:06:16;;;;;;;;;;;18.80;94.60;;;;;;5054835;28;19966;-87
2023/05/01 13:08:41;;;;;;;;;;;19.30;96.40;;;;;;5062864;28;20417;-88
2023/05/01 13:11:15;;;;;;;;;;;19.30;94.80;;;;;;5032970;28;19933;-88
2023/05/01 13:13:44;;;;;;;;;;;19.50;92.70;;;;;;5049921;28;19999;-87
2023/05/01 13:16:14;;;;;;;;;;;19.20;93.60;;;;;;5070555;28;19924;-87
2023/05/01 13:18:44;;;;;;;;;;;19.60;91.80;;;;;;5051230;28;19924;-88
2023/05/01 13:21:10;;;;;;;;;;;19.10;91.00;;;;;;5071685;28;19935;-87
2023/05/01 13:23:36;;;;;;;;;;;19.00;93.30;;;;;;5049130;28;19975;-86
2023/05/01 13:26:05;;;;;;;;;;;18.70;94.50;;;;;;5062879;28;19969;-87
2023/05/01 13:28:33;;;;;;;;;;;18.70;94.40;;;;;;5066583;28;19997;-87
2023/05/01 13:30:58;;;;;;;;;;;18.80;92.70;;;;;;5050417;28;19962;-87
2023/05/01 13:33:24;;;;;;;;;;;18.60;94.60;;;;;;5069389;28;19928;-87
2023/05/01 13:35:50;;;;;;;;;;;18.60;96.90;;;;;;5067627;28;20071;-87
2023/05/01 13:38:22;;;;;;;;;;;18.50;95.90;;;;;;5052015;28;20360;-86
2023/05/01 13:40:47;;;;;;;;;;;18.60;94.80;;;;;;5043076;28;19924;-87
2023/05/01 13:43:16;;;;;;;;;;;18.30;96.80;;;;;;5049260;28;20285;-87
2023/05/01 13:45:42;;;;;;;;;;;18.30;95.90;;;;;;5044067;28;19974;-85
2023/05/01 13:48:08;;;;;;;;;;;18.10;98.50;;;;;;5033921;28;19928;-86
2023/05/01 13:50:33;;;;;;;;;;;18.10;97.10;;;;;;5041739;28;19933;-85
2023/05/01 13:53:00;;;;;;;;;;;18.10;97.40;;;;;;5065166;28;19956;-86
2023/05/01 13:55:26;;;;;;;;;;;18.00;96.70;;;;;;5048951;28;19944;-87
2023/05/01 13:57:54;;;;;;;;;;;17.80;98.70;;;;;;5063924;28;19924;-87
2023/05/01 14:00:21;;;;;;;;;;;17.80;99.00;;;;;;5037026;28;19928;-87
2023/05/01 14:02:47;;;;;;;;;;;17.70;99.20;;;;;;5036057;28;19934;-87
2023/05/01 14:05:20;;;;;;;;;;;17.70;98.70;;;;;;5047421;28;19932;-87
2023/05/01 14:07:58;;;;;;;;;;;17.50;99.10;;;;;;5047216;28;20066;-87
2023/05/01 14:10:27;;;;;;;;;;;17.50;99.90;;;;;;5055137;28;20015;-86
2023/05/01 14:12:57;;;;;;;;;;;17.60;99.90;;;;;;5049560;28;19932;-87
2023/05/01 14:15:23;;;;;;;;;;;17.30;99.90;;;;;;5035688;28;20505;-86
2023/05/01 14:17:49;;;;;;;;;;;17.30;99.90;;;;;;5064221;28;19932;-85
2023/05/01 14:20:15;;;;;;;;;;;17.30;99.90;;;;;;5045013;28;20257;-87
2023/05/01 14:22:44;;;;;;;;;;;17.20;99.90;;;;;;5050908;28;19947;-87
2023/05/01 14:25:34;;;;;;;;;;;17.20;99.90;;;;;;5067537;28;20027;-86